Latest Coastal Weather Observations for Wadeye (Port Keats)

IDD60701

Issued at 6:52 pm CST Friday 19 December 2014 (issued every 10 minutes, with the page automatically refreshed every 10 minutes)

About coastal observations | Map of coastal stations | Coastal observations for NT | Marine services | Other Formats
Station Details ID: 014948 Name: PORT KEATS AIRPORT Lat: -14.25 Lon: 129.53 Height: 28.0 m
Data from the previous 72 hours. | See also: Recent months at Wadeye (Port Keats)
Date/Time
CST
Temp

°C
Wind Pressure Rain
since 9am
mm
Weather Cloud Vis
km
Sea
Height
m
Swell
Dir
 
Speed
knots
Gust
knots
hPa Trend Height
m
Period
s
Dir
19/06:30pm 31.6 NW 5 7 1006.3 - 0.0 - - - - - - -
19/06:00pm 31.8 NNW 6 8 1006.4 - 0.0 - - - - - - -
19/05:30pm 31.6 WNW 4 8 1005.1 - 0.0 - - - - - - -
19/05:00pm 31.8 W 3 6 1005.3 - 0.0 - - - - - - -
19/04:30pm 32.3 WNW 4 7 1005.8 - 0.0 - - - - - - -
19/04:00pm 32.8 WNW 7 11 1005.9 - 0.0 - - - - - - -
19/03:30pm 33.7 W 6 11 1006.1 - 0.0 - - - - - - -
19/03:00pm 34.8 NW 7 11 1007.1 - 0.0 - - - - - - -
19/02:30pm 34.8 WNW 7 11 1007.0 - 0.0 - - - - - - -
19/02:00pm 35.1 W 7 10 1007.9 - 0.0 - - - - - - -
19/01:30pm 34.3 WNW 4 7 1008.4 - 0.0 - - - - - - -
19/01:00pm 34.3 W 6 10 1008.7 - 0.0 - - - - - - -
19/12:30pm 34.7 WNW 4 8 1008.9 - 0.0 - - - - - - -
19/12:00pm 35.3 NE 1 7 1009.3 - 0.0 - - - - - - -
19/11:30am 34.6 N 4 7 1009.7 - 0.0 - - - - - - -
19/11:00am 34.3 E 1 4 1009.9 - 0.0 - - - - - - -
19/10:30am 32.9 N 3 5 1010.2 - 0.0 - - - - - - -
19/10:00am 32.8 SW 1 4 1010.2 - 0.0 - - - - - - -
19/09:30am 32.8 W 4 6 1010.2 - 0.0 - - - - - - -
19/09:00am 32.6 SW 1 3 1010.2 - 0.0 - - - - - - -
19/08:30am 31.3 S 2 4 1010.2 - 0.0 - - - - - - -
19/08:00am 30.1 CALM 0 3 1009.9 - 0.0 - - - - - - -
19/07:30am 29.1 S 3 5 1009.4 - 0.0 - - - - - - -
19/07:00am 28.5 S 2 4 1009.1 - 0.0 - - - - - - -
19/06:30am 27.6 SSE 1 4 1008.5 - 0.0 - - - - - - -
19/06:00am 27.5 CALM 0 0 1008.1 - 0.0 - - - - - - -
19/05:30am 28.0 CALM 0 0 1008.0 - 0.0 - - - - - - -
19/05:00am 28.1 CALM 0 0 1007.6 - 0.0 - - - - - - -
19/04:30am 27.9 CALM 0 0 1007.6 - 0.0 - - - - - - -
19/04:00am 27.7 CALM 0 0 1007.5 - 0.0 - - - - - - -
19/03:30am 28.5 CALM 0 0 1007.7 - 0.0 - - - - - - -
19/03:00am 28.3 CALM 0 0 1007.8 - 0.0 - - - - - - -
19/02:30am 28.2 CALM 0 0 1008.1 - 0.0 - - - - - - -
19/02:00am 28.6 CALM 0 0 1008.3 - 0.0 - - - - - - -
19/01:30am 28.5 CALM 0 0 1008.6 - 0.0 - - - - - - -
19/01:00am 28.3 CALM 0 0 1009.2 - 0.0 - - - - - - -
19/12:30am 28.4 CALM 0 3 1009.4 - 0.0 - - - - - - -
19/12:00am 28.3 CALM 0 0 1009.6 - 0.0 - - - - - - -
 
Date/Time
CST
Temp

°C
Wind Pressure Rain
since 9am
mm
Weather Cloud Vis
km
Sea
Height
m
Swell
Dir
 
Speed
knots
Gust
knots
hPa Trend Height
m
Period
s
Dir
18/11:30pm 29.1 CALM 0 0 1009.5 - 0.0 - - - - - - -
18/11:00pm 28.7 SSW 4 5 1009.3 - 0.0 - - - - - - -
18/10:30pm 29.5 CALM 0 0 1008.7 - 0.0 - - - - - - -
18/10:00pm 30.1 CALM 0 3 1008.3 - 0.0 - - - - - - -
18/09:30pm 30.3 NW 3 4 1008.1 - 0.0 - - - - - - -
18/09:00pm 30.7 N 4 5 1007.7 - 0.0 - - - - - - -
18/08:30pm 30.6 N 3 5 1007.5 - 0.0 - - - - - - -
18/08:00pm 30.9 NNW 4 5 1007.1 - 0.0 - - - - - - -
18/07:30pm 30.6 W 3 5 1006.8 - 0.0 - - - - - - -
18/07:00pm 31.3 NW 4 5 1007.4 - 0.0 - - - - - - -
18/06:30pm 31.3 WNW 5 7 1007.0 - 0.0 - - - - - - -
18/06:00pm 31.6 NW 5 8 1006.5 - 0.0 - - - - - - -
18/05:30pm 31.4 NW 6 8 1005.9 - 0.0 - - - - - - -
18/05:00pm 31.2 NW 6 8 1005.3 - 0.0 - - - - - - -
18/04:30pm 31.5 WNW 3 7 1005.9 - 0.0 - - - - - - -
18/04:00pm 31.8 W 5 8 1006.5 - 0.0 - - - - - - -
18/03:30pm 32.7 W 7 11 1006.1 - 0.0 - - - - - - -
18/03:00pm 34.4 NW 10 14 1006.4 - 0.0 - - - - - - -
18/02:30pm 34.5 WNW 9 14 1006.9 - 0.0 - - - - - - -
18/02:00pm 35.3 NW 8 15 1007.2 - 0.0 - - - - - - -
18/01:30pm 34.6 WNW 7 10 1007.8 - 0.0 - - - - - - -
18/01:00pm 34.5 NW 7 9 1008.3 - 0.0 - - - - - - -
18/12:30pm 34.6 NW 8 11 1008.5 - 0.0 - - - - - - -
18/12:00pm 34.7 W 6 11 1008.9 - 0.0 - - - - - - -
18/11:30am 34.8 WNW 7 10 1009.2 - 0.0 - - - - - - -
18/11:00am 33.6 WNW 6 12 1009.7 - 0.0 - - - - - - -
18/10:30am 32.9 WNW 8 11 1009.8 - 0.0 - - - - - - -
18/10:00am 32.5 W 7 11 1009.6 - 0.0 - - - - - - -
18/09:30am 32.5 W 7 9 1009.2 - 0.0 - - - - - - -
18/09:00am 31.7 W 6 9 1008.9 - 0.0 - - - - - - -
18/08:30am 31.7 W 6 8 1008.5 - 0.0 - - - - - - -
18/08:00am 31.0 W 4 7 1008.3 - 0.0 - - - - - - -
18/07:30am 29.5 CALM 0 0 1007.8 - 0.0 - - - - - - -
18/07:00am 28.6 CALM 0 0 1007.5 - 0.0 - - - - - - -
18/06:30am 28.2 CALM 0 0 1007.0 - 0.0 - - - - - - -
18/06:00am 28.2 CALM 0 0 1006.6 - 0.0 - - - - - - -
18/05:30am 28.2 CALM 0 0 1006.3 - 0.0 - - - - - - -
18/05:00am 29.0 WNW 2 4 1006.0 - 0.0 - - - - - - -
18/04:30am 29.3 CALM 0 0 1005.9 - 0.0 - - - - - - -
18/04:00am 29.4 WNW 3 4 1005.8 - 0.0 - - - - - - -
18/03:30am 29.9 NNW 4 5 1005.7 - 0.0 - - - - - - -
18/03:00am 29.8 NNW 5 6 1005.7 - 0.0 - - - - - - -
18/02:30am 30.0 NW 4 5 1005.7 - 0.0 - - - - - - -
18/02:00am 29.8 NW 3 5 1005.6 - 0.0 - - - - - - -
18/01:30am 29.9 NW 3 4 1005.7 - 0.0 - - - - - - -
18/01:00am 29.6 W 4 6 1005.8 - 0.0 - - - - - - -
18/12:30am 29.5 WSW 4 6 1006.1 - 0.0 - - - - - - -
18/12:00am 30.0 NW 4 6 1006.8 - 0.0 - - - - - - -
 
Date/Time
CST
Temp

°C
Wind Pressure Rain
since 9am
mm
Weather Cloud Vis
km
Sea
Height
m
Swell
Dir
 
Speed
knots
Gust
knots
hPa Trend Height
m
Period
s
Dir
17/11:30pm 30.3 N 7 8 1006.9 - 0.0 - - - - - - -
17/11:00pm 30.2 NNW 5 7 1006.8 - 0.0 - - - - - - -
17/10:30pm 29.8 WNW 3 5 1006.9 - 0.0 - - - - - - -
17/10:00pm 30.5 NNW 5 6 1007.2 - 0.0 - - - - - - -
17/09:30pm 30.3 WNW 4 7 1007.4 - 0.0 - - - - - - -
17/09:00pm 30.7 N 5 6 1007.5 - 0.0 - - - - - - -
17/08:30pm 30.8 NNW 5 7 1006.9 - 0.0 - - - - - - -
17/08:00pm 30.9 NW 5 6 1006.4 - 0.0 - - - - - - -
17/07:30pm 31.0 NW 6 8 1005.4 - 0.0 - - - - - - -
17/07:00pm 31.4 E 2 4 1006.1 - 0.0 - - - - - - -
17/06:30pm 31.5 NW 5 7 1005.5 - 0.0 - - - - - - -
17/06:00pm 31.7 NNW 6 9 1005.1 - 0.0 - - - - - - -
17/05:30pm 32.0 NW 8 12 1004.5 - 0.0 - - - - - - -
17/05:00pm 32.1 NNW 9 11 1004.7 - 0.0 - - - - - - -
17/04:30pm 32.5 NW 10 13 1004.1 - 0.0 - - - - - - -
17/04:00pm 32.9 NW 9 12 1004.4 - 0.0 - - - - - - -
17/03:30pm 32.7 NW 9 13 1004.8 - 0.0 - - - - - - -
17/03:00pm 33.1 WNW 9 13 1004.8 - 0.0 - - - - - - -
17/02:30pm 34.7 WNW 9 13 1004.6 - 0.0 - - - - - - -
17/02:00pm 35.1 NNW 10 14 1005.3 - 0.0 - - - - - - -
17/01:30pm 34.7 NNW 10 14 1005.6 - 0.0 - - - - - - -
17/01:00pm 34.7 NW 9 13 1006.0 - 0.0 - - - - - - -
17/12:30pm 34.3 NW 8 11 1006.5 - 0.0 - - - - - - -
17/12:00pm 33.9 NNW 8 14 1007.1 - 0.0 - - - - - - -
17/11:30am 33.4 NNW 8 11 1007.4 - 0.0 - - - - - - -
17/11:00am 34.6 NNW 7 11 1007.5 - 0.0 - - - - - - -
17/10:30am 33.4 NW 6 9 1007.5 - 0.0 - - - - - - -
17/10:00am 32.8 NW 7 11 1007.5 - 0.0 - - - - - - -
17/09:30am 33.3 NNW 8 11 1007.3 - 0.0 - - - - - - -
17/09:00am 32.2 NNW 8 9 1007.2 - 0.0 - - - - - - -
17/08:30am 32.1 NNW 6 8 1007.0 - 0.0 - - - - - - -
17/08:00am 31.0 N 4 6 1006.7 - 0.0 - - - - - - -
17/07:30am 30.3 N 1 3 1006.3 - 0.0 - - - - - - -
17/07:00am 28.9 CALM 0 0 1005.8 - 0.0 - - - - - - -
17/06:30am 28.5 CALM 0 0 1005.4 - 0.0 - - - - - - -
17/06:00am 29.0 CALM 0 0 1005.2 - 0.0 - - - - - - -
17/05:30am 29.1 CALM 0 3 1004.9 - 0.0 - - - - - - -
17/05:00am 29.4 WNW 3 4 1004.8 - 0.0 - - - - - - -
17/04:30am 29.6 NW 5 7 1004.6 - 0.0 - - - - - - -
17/04:00am 29.6 WNW 4 7 1004.7 - 0.0 - - - - - - -
17/03:30am 29.7 WNW 5 8 1004.5 - 0.0 - - - - - - -
17/03:00am 29.7 WNW 4 7 1004.5 - 0.0 - - - - - - -
17/02:30am 29.9 WNW 6 11 1004.9 - 0.0 - - - - - - -
17/02:00am 29.9 NW 5 8 1005.3 - 0.0 - - - - - - -
17/01:30am 29.9 WNW 5 8 1005.6 - 0.0 - - - - - - -
17/01:00am 29.9 WNW 5 9 1005.9 - 0.0 - - - - - - -
17/12:30am 30.0 NW 6 8 1006.3 - 0.0 - - - - - - -
17/12:00am 29.9 NW 5 7 1006.5 - 0.0 - - - - - - -
 
Date/Time
CST
Temp

°C
Wind Pressure Rain
since 9am
mm
Weather Cloud Vis
km
Sea
Height
m
Swell
Dir
 
Speed
knots
Gust
knots
hPa Trend Height
m
Period
s
Dir
16/11:30pm 30.1 NNW 6 8 1006.6 - 0.0 - - - - - - -
16/11:00pm 30.2 NW 5 6 1006.7 - 0.0 - - - - - - -
16/10:30pm 30.3 NNW 6 7 1006.5 - 0.0 - - - - - - -
16/10:00pm 30.3 NNW 6 8 1006.3 - 0.0 - - - - - - -
16/09:30pm 30.5 NNW 6 9 1005.7 - 0.0 - - - - - - -
16/09:00pm 30.3 NNW 6 7 1005.6 - 0.0 - - - - - - -
16/08:30pm 30.7 NNW 5 8 1005.5 - 0.0 - - - - - - -
16/08:00pm 30.9 NW 5 8 1005.7 - 0.0 - - - - - - -
16/07:30pm 31.2 NW 6 8 1005.1 - 0.0 - - - - - - -
16/07:00pm 31.4 NNW 8 13 1004.7 - 0.0 - - - - - - -

Other Formats:

Comma delimited format used in spreadsheet applications
http://www.bom.gov.au/fwo/IDD60701/IDD60701.95111.axf

JavaScript Object Notation format (JSON) in row-major order
http://www.bom.gov.au/fwo/IDD60701/IDD60701.95111.json